sensor_id;sensor_type;location;lat;lon;timestamp;temperature;humidity
23717;DHT22;22094;52.130;5.598;2023-11-22T00:01:10;4.20;99.90
23717;DHT22;22094;52.130;5.598;2023-11-22T00:03:36;4.20;99.90
23717;DHT22;22094;52.130;5.598;2023-11-22T00:06:02;4.10;99.90
23717;DHT22;22094;52.130;5.598;2023-11-22T00:08:30;4.10;99.90
23717;DHT22;22094;52.130;5.598;2023-11-22T00:10:55;4.00;99.90
23717;DHT22;22094;52.130;5.598;2023-11-22T00:13:25;4.10;99.90
23717;DHT22;22094;52.130;5.598;2023-11-22T00:15:51;4.10;99.90
23717;DHT22;22094;52.130;5.598;2023-11-22T00:18:16;4.10;99.90
23717;DHT22;22094;52.130;5.598;2023-11-22T00:20:42;3.90;99.90
23717;DHT22;22094;52.130;5.598;2023-11-22T00:23:11;4.50;99.90
23717;DHT22;22094;52.130;5.598;2023-11-22T00:25:36;4.30;99.90
23717;DHT22;22094;52.130;5.598;2023-11-22T00:28:02;4.20;99.90
23717;DHT22;22094;52.130;5.598;2023-11-22T00:30:28;4.30;99.90
23717;DHT22;22094;52.130;5.598;2023-11-22T00:32:53;4.20;99.90
23717;DHT22;22094;52.130;5.598;2023-11-22T00:35:19;4.10;99.90
23717;DHT22;22094;52.130;5.598;2023-11-22T00:37:44;4.10;99.90
23717;DHT22;22094;52.130;5.598;2023-11-22T00:40:10;4.00;99.90
23717;DHT22;22094;52.130;5.598;2023-11-22T00:42:37;3.80;99.90
23717;DHT22;22094;52.130;5.598;2023-11-22T00:45:05;3.70;99.90
23717;DHT22;22094;52.130;5.598;2023-11-22T00:47:32;3.50;99.90
23717;DHT22;22094;52.130;5.598;2023-11-22T00:49:58;3.60;99.90
23717;DHT22;22094;52.130;5.598;2023-11-22T00:52:24;3.50;99.90
23717;DHT22;22094;52.130;5.598;2023-11-22T00:54:49;3.40;99.90
23717;DHT22;22094;52.130;5.598;2023-11-22T00:57:15;3.50;99.90
23717;DHT22;22094;52.130;5.598;2023-11-22T00:59:41;3.50;99.90
23717;DHT22;22094;52.130;5.598;2023-11-22T01:02:06;4.40;99.90
23717;DHT22;22094;52.130;5.598;2023-11-22T01:04:34;3.40;99.90
23717;DHT22;22094;52.130;5.598;2023-11-22T01:07:01;3.30;99.90
23717;DHT22;22094;52.130;5.598;2023-11-22T01:09:27;3.50;99.90
23717;DHT22;22094;52.130;5.598;2023-11-22T01:11:54;3.00;99.90
23717;DHT22;22094;52.130;5.598;2023-11-22T01:14:19;2.90;99.90
23717;DHT22;22094;52.130;5.598;2023-11-22T01:16:45;2.70;99.90
23717;DHT22;22094;52.130;5.598;2023-11-22T01:19:11;3.20;99.90
23717;DHT22;22094;52.130;5.598;2023-11-22T01:21:36;2.50;99.90
23717;DHT22;22094;52.130;5.598;2023-11-22T01:24:02;2.40;99.90
23717;DHT22;22094;52.130;5.598;2023-11-22T01:26:28;2.50;99.90
23717;DHT22;22094;52.130;5.598;2023-11-22T01:28:53;2.60;99.90
23717;DHT22;22094;52.130;5.598;2023-11-22T01:31:19;2.70;99.90
23717;DHT22;22094;52.130;5.598;2023-11-22T01:33:46;2.70;99.90
23717;DHT22;22094;52.130;5.598;2023-11-22T01:36:12;3.00;99.90
23717;DHT22;22094;52.130;5.598;2023-11-22T01:38:38;2.70;99.90
23717;DHT22;22094;52.130;5.598;2023-11-22T01:41:05;2.70;99.90
23717;DHT22;22094;52.130;5.598;2023-11-22T01:43:31;2.80;99.90
23717;DHT22;22094;52.130;5.598;2023-11-22T01:45:56;2.80;99.90
23717;DHT22;22094;52.130;5.598;2023-11-22T01:48:22;2.70;99.90
23717;DHT22;22094;52.130;5.598;2023-11-22T01:50:48;2.80;99.90
23717;DHT22;22094;52.130;5.598;2023-11-22T01:53:14;2.80;99.90
23717;DHT22;22094;52.130;5.598;2023-11-22T01:55:43;3.50;99.90
23717;DHT22;22094;52.130;5.598;2023-11-22T01:58:10;3.00;99.90
23717;DHT22;22094;52.130;5.598;2023-11-22T02:00:45;3.10;99.90
23717;DHT22;22094;52.130;5.598;2023-11-22T02:03:13;3.10;99.90
23717;DHT22;22094;52.130;5.598;2023-11-22T02:05:41;4.00;99.90
23717;DHT22;22094;52.130;5.598;2023-11-22T02:08:11;3.00;99.90
23717;DHT22;22094;52.130;5.598;2023-11-22T02:10:38;3.10;99.90
23717;DHT22;22094;52.130;5.598;2023-11-22T02:13:05;3.10;99.90
23717;DHT22;22094;52.130;5.598;2023-11-22T02:15:35;3.00;99.90
23717;DHT22;22094;52.130;5.598;2023-11-22T02:18:02;3.00;99.90
23717;DHT22;22094;52.130;5.598;2023-11-22T02:20:29;3.00;99.90
23717;DHT22;22094;52.130;5.598;2023-11-22T02:22:54;3.00;99.90
23717;DHT22;22094;52.130;5.598;2023-11-22T02:25:21;3.00;99.90
23717;DHT22;22094;52.130;5.598;2023-11-22T02:27:46;3.00;99.90
23717;DHT22;22094;52.130;5.598;2023-11-22T02:30:13;3.00;99.90
23717;DHT22;22094;52.130;5.598;2023-11-22T02:32:38;2.90;99.90
23717;DHT22;22094;52.130;5.598;2023-11-22T02:35:05;2.90;99.90
23717;DHT22;22094;52.130;5.598;2023-11-22T02:37:35;2.90;99.90
23717;DHT22;22094;52.130;5.598;2023-11-22T02:42:43;2.80;99.90
23717;DHT22;22094;52.130;5.598;2023-11-22T02:45:09;2.80;99.90
23717;DHT22;22094;52.130;5.598;2023-11-22T02:47:35;2.80;99.90
23717;DHT22;22094;52.130;5.598;2023-11-22T02:50:02;2.80;99.90
23717;DHT22;22094;52.130;5.598;2023-11-22T02:52:28;3.10;99.90
23717;DHT22;22094;52.130;5.598;2023-11-22T02:54:53;2.50;99.90
23717;DHT22;22094;52.130;5.598;2023-11-22T02:57:19;2.40;99.90
23717;DHT22;22094;52.130;5.598;2023-11-22T02:59:44;2.40;99.90
23717;DHT22;22094;52.130;5.598;2023-11-22T03:02:10;2.40;99.90
23717;DHT22;22094;52.130;5.598;2023-11-22T03:04:37;2.40;99.90
23717;DHT22;22094;52.130;5.598;2023-11-22T03:07:02;2.50;99.90
23717;DHT22;22094;52.130;5.598;2023-11-22T03:09:28;2.40;99.90
23717;DHT22;22094;52.130;5.598;2023-11-22T03:11:55;3.00;99.90
23717;DHT22;22094;52.130;5.598;2023-11-22T03:14:20;2.40;99.90
23717;DHT22;22094;52.130;5.598;2023-11-22T03:16:47;2.40;99.90
23717;DHT22;22094;52.130;5.598;2023-11-22T03:19:13;2.80;99.90
23717;DHT22;22094;52.130;5.598;2023-11-22T03:21:40;2.50;99.90
23717;DHT22;22094;52.130;5.598;2023-11-22T03:24:09;2.50;99.90
23717;DHT22;22094;52.130;5.598;2023-11-22T03:26:35;2.50;99.90
23717;DHT22;22094;52.130;5.598;2023-11-22T03:29:01;2.60;99.90
23717;DHT22;22094;52.130;5.598;2023-11-22T03:31:29;2.60;99.90
23717;DHT22;22094;52.130;5.598;2023-11-22T03:33:57;2.50;99.90
23717;DHT22;22094;52.130;5.598;2023-11-22T03:36:22;2.60;99.90
23717;DHT22;22094;52.130;5.598;2023-11-22T03:38:49;2.90;99.90
23717;DHT22;22094;52.130;5.598;2023-11-22T03:41:15;2.50;99.90
23717;DHT22;22094;52.130;5.598;2023-11-22T03:43:42;2.50;99.90
23717;DHT22;22094;52.130;5.598;2023-11-22T03:46:08;2.50;99.90
23717;DHT22;22094;52.130;5.598;2023-11-22T03:48:33;2.50;99.90
23717;DHT22;22094;52.130;5.598;2023-11-22T03:50:59;2.50;99.90
23717;DHT22;22094;52.130;5.598;2023-11-22T03:53:25;2.50;99.90
23717;DHT22;22094;52.130;5.598;2023-11-22T03:55:52;2.40;99.90
23717;DHT22;22094;52.130;5.598;2023-11-22T03:58:18;2.40;99.90
23717;DHT22;22094;52.130;5.598;2023-11-22T04:00:43;2.30;99.90
23717;DHT22;22094;52.130;5.598;2023-11-22T04:03:09;2.30;99.90
23717;DHT22;22094;52.130;5.598;2023-11-22T04:05:35;2.30;99.90
23717;DHT22;22094;52.130;5.598;2023-11-22T04:08:01;2.20;99.90
23717;DHT22;22094;52.130;5.598;2023-11-22T04:10:26;2.10;99.90
23717;DHT22;22094;52.130;5.598;2023-11-22T04:12:52;1.70;99.90
23717;DHT22;22094;52.130;5.598;2023-11-22T04:15:18;2.10;99.90
23717;DHT22;22094;52.130;5.598;2023-11-22T04:17:43;2.40;99.90
23717;DHT22;22094;52.130;5.598;2023-11-22T04:20:09;2.10;99.90
23717;DHT22;22094;52.130;5.598;2023-11-22T04:22:36;2.00;99.90
23717;DHT22;22094;52.130;5.598;2023-11-22T04:25:02;1.90;99.90
23717;DHT22;22094;52.130;5.598;2023-11-22T04:27:28;1.80;99.90
23717;DHT22;22094;52.130;5.598;2023-11-22T04:29:53;1.70;99.90
23717;DHT22;22094;52.130;5.598;2023-11-22T04:32:20;1.50;99.90
23717;DHT22;22094;52.130;5.598;2023-11-22T04:34:47;1.40;99.90
23717;DHT22;22094;52.130;5.598;2023-11-22T04:37:13;1.30;99.90
23717;DHT22;22094;52.130;5.598;2023-11-22T04:39:38;1.20;99.90
23717;DHT22;22094;52.130;5.598;2023-11-22T04:42:04;1.10;99.90
23717;DHT22;22094;52.130;5.598;2023-11-22T04:44:31;1.00;99.90
23717;DHT22;22094;52.130;5.598;2023-11-22T04:46:57;1.00;99.90
23717;DHT22;22094;52.130;5.598;2023-11-22T04:49:25;1.00;99.90
23717;DHT22;22094;52.130;5.598;2023-11-22T04:51:50;1.00;99.90
23717;DHT22;22094;52.130;5.598;2023-11-22T04:54:16;0.90;99.90
23717;DHT22;22094;52.130;5.598;2023-11-22T04:56:42;0.90;99.90
23717;DHT22;22094;52.130;5.598;2023-11-22T04:59:08;0.90;99.90
23717;DHT22;22094;52.130;5.598;2023-11-22T05:05:00;0.90;99.90
23717;DHT22;22094;52.130;5.598;2023-11-22T05:07:26;0.80;99.90
23717;DHT22;22094;52.130;5.598;2023-11-22T05:09:51;0.90;99.90
23717;DHT22;22094;52.130;5.598;2023-11-22T05:12:17;0.90;99.90
23717;DHT22;22094;52.130;5.598;2023-11-22T05:14:43;0.90;99.90
23717;DHT22;22094;52.130;5.598;2023-11-22T05:17:09;1.60;99.90
23717;DHT22;22094;52.130;5.598;2023-11-22T05:19:34;1.00;99.90
23717;DHT22;22094;52.130;5.598;2023-11-22T05:22:00;1.10;99.90
23717;DHT22;22094;52.130;5.598;2023-11-22T05:24:26;1.10;99.90
23717;DHT22;22094;52.130;5.598;2023-11-22T05:26:51;1.10;99.90
23717;DHT22;22094;52.130;5.598;2023-11-22T05:29:17;1.60;99.90
23717;DHT22;22094;52.130;5.598;2023-11-22T05:31:43;1.10;99.90
23717;DHT22;22094;52.130;5.598;2023-11-22T05:34:08;1.10;99.90
23717;DHT22;22094;52.130;5.598;2023-11-22T05:36:34;1.10;99.90
23717;DHT22;22094;52.130;5.598;2023-11-22T05:39:00;1.30;99.90
23717;DHT22;22094;52.130;5.598;2023-11-22T05:41:26;1.60;99.90
23717;DHT22;22094;52.130;5.598;2023-11-22T05:43:52;0.80;99.90
23717;DHT22;22094;52.130;5.598;2023-11-22T05:46:22;1.10;99.90
23717;DHT22;22094;52.130;5.598;2023-11-22T05:52:02;1.30;99.90
23717;DHT22;22094;52.130;5.598;2023-11-22T05:54:31;1.30;99.90
23717;DHT22;22094;52.130;5.598;2023-11-22T05:56:57;1.40;99.90
23717;DHT22;22094;52.130;5.598;2023-11-22T05:59:22;1.70;99.90
23717;DHT22;22094;52.130;5.598;2023-11-22T06:01:49;1.40;99.90
23717;DHT22;22094;52.130;5.598;2023-11-22T06:04:15;1.30;99.90
23717;DHT22;22094;52.130;5.598;2023-11-22T06:06:40;2.00;99.90
23717;DHT22;22094;52.130;5.598;2023-11-22T06:09:06;1.40;99.90
23717;DHT22;22094;52.130;5.598;2023-11-22T06:11:32;1.40;99.90
23717;DHT22;22094;52.130;5.598;2023-11-22T06:13:59;1.50;99.90
23717;DHT22;22094;52.130;5.598;2023-11-22T06:16:24;1.50;99.90
23717;DHT22;22094;52.130;5.598;2023-11-22T06:18:50;1.50;99.90
23717;DHT22;22094;52.130;5.598;2023-11-22T06:21:16;1.50;99.90
23717;DHT22;22094;52.130;5.598;2023-11-22T06:23:42;1.50;99.90
23717;DHT22;22094;52.130;5.598;2023-11-22T06:26:08;1.40;99.90
23717;DHT22;22094;52.130;5.598;2023-11-22T06:28:33;1.40;99.90
23717;DHT22;22094;52.130;5.598;2023-11-22T06:31:00;1.40;99.90
23717;DHT22;22094;52.130;5.598;2023-11-22T06:33:25;1.80;99.90
23717;DHT22;22094;52.130;5.598;2023-11-22T06:35:51;1.40;99.90
23717;DHT22;22094;52.130;5.598;2023-11-22T06:38:16;1.50;99.90
23717;DHT22;22094;52.130;5.598;2023-11-22T06:40:42;1.50;99.90
23717;DHT22;22094;52.130;5.598;2023-11-22T06:43:08;2.00;99.90
23717;DHT22;22094;52.130;5.598;2023-11-22T06:45:33;1.50;99.90
23717;DHT22;22094;52.130;5.598;2023-11-22T06:47:59;1.50;99.90
23717;DHT22;22094;52.130;5.598;2023-11-22T06:50:24;1.40;99.90
23717;DHT22;22094;52.130;5.598;2023-11-22T06:52:50;1.50;99.90
23717;DHT22;22094;52.130;5.598;2023-11-22T06:55:18;1.60;99.90
23717;DHT22;22094;52.130;5.598;2023-11-22T06:57:44;1.60;99.90
23717;DHT22;22094;52.130;5.598;2023-11-22T07:00:10;1.60;99.90
23717;DHT22;22094;52.130;5.598;2023-11-22T07:02:36;1.70;99.90
23717;DHT22;22094;52.130;5.598;2023-11-22T07:05:02;1.60;99.90
23717;DHT22;22094;52.130;5.598;2023-11-22T07:07:29;1.60;99.90
23717;DHT22;22094;52.130;5.598;2023-11-22T07:09:55;1.50;99.90
23717;DHT22;22094;52.130;5.598;2023-11-22T07:12:24;1.50;99.90
23717;DHT22;22094;52.130;5.598;2023-11-22T07:14:50;1.50;99.90
23717;DHT22;22094;52.130;5.598;2023-11-22T07:17:16;1.60;99.90
23717;DHT22;22094;52.130;5.598;2023-11-22T07:19:43;1.60;99.90
23717;DHT22;22094;52.130;5.598;2023-11-22T07:22:13;1.50;99.90
23717;DHT22;22094;52.130;5.598;2023-11-22T07:24:42;1.60;99.90
23717;DHT22;22094;52.130;5.598;2023-11-22T07:27:12;1.70;99.90
23717;DHT22;22094;52.130;5.598;2023-11-22T07:29:42;1.80;99.90
23717;DHT22;22094;52.130;5.598;2023-11-22T07:32:08;1.80;99.90
23717;DHT22;22094;52.130;5.598;2023-11-22T07:34:35;1.80;99.90
23717;DHT22;22094;52.130;5.598;2023-11-22T07:37:01;2.20;99.90
23717;DHT22;22094;52.130;5.598;2023-11-22T07:39:27;1.70;99.90
23717;DHT22;22094;52.130;5.598;2023-11-22T07:41:56;1.80;99.90
23717;DHT22;22094;52.130;5.598;2023-11-22T07:44:22;1.70;99.90
23717;DHT22;22094;52.130;5.598;2023-11-22T07:46:47;1.50;99.90
23717;DHT22;22094;52.130;5.598;2023-11-22T07:49:13;1.70;99.90
23717;DHT22;22094;52.130;5.598;2023-11-22T07:51:40;1.60;99.90
23717;DHT22;22094;52.130;5.598;2023-11-22T07:54:06;1.70;99.90
23717;DHT22;22094;52.130;5.598;2023-11-22T07:56:32;2.00;99.90
23717;DHT22;22094;52.130;5.598;2023-11-22T07:58:58;1.70;99.90
23717;DHT22;22094;52.130;5.598;2023-11-22T08:01:24;1.70;99.90
23717;DHT22;22094;52.130;5.598;2023-11-22T08:03:51;2.10;99.90
23717;DHT22;22094;52.130;5.598;2023-11-22T08:06:17;1.70;99.90
23717;DHT22;22094;52.130;5.598;2023-11-22T08:08:43;1.80;99.90
23717;DHT22;22094;52.130;5.598;2023-11-22T08:11:11;1.80;99.90
23717;DHT22;22094;52.130;5.598;2023-11-22T08:13:43;2.00;99.90
23717;DHT22;22094;52.130;5.598;2023-11-22T08:16:10;1.90;99.90
23717;DHT22;22094;52.130;5.598;2023-11-22T08:18:38;2.10;99.90
23717;DHT22;22094;52.130;5.598;2023-11-22T08:21:04;2.10;99.90
23717;DHT22;22094;52.130;5.598;2023-11-22T08:23:30;2.10;99.90
23717;DHT22;22094;52.130;5.598;2023-11-22T08:25:59;2.10;99.90
23717;DHT22;22094;52.130;5.598;2023-11-22T08:28:25;2.50;99.90
23717;DHT22;22094;52.130;5.598;2023-11-22T08:30:51;2.90;99.90
23717;DHT22;22094;52.130;5.598;2023-11-22T08:33:17;2.20;99.90
23717;DHT22;22094;52.130;5.598;2023-11-22T08:35:42;2.40;99.90
23717;DHT22;22094;52.130;5.598;2023-11-22T08:38:08;2.40;99.90
23717;DHT22;22094;52.130;5.598;2023-11-22T08:40:35;2.50;99.90
23717;DHT22;22094;52.130;5.598;2023-11-22T08:43:05;3.00;99.90
23717;DHT22;22094;52.130;5.598;2023-11-22T08:45:31;3.80;99.90
23717;DHT22;22094;52.130;5.598;2023-11-22T08:52:50;2.70;99.90
23717;DHT22;22094;52.130;5.598;2023-11-22T08:55:21;2.80;99.90
23717;DHT22;22094;52.130;5.598;2023-11-22T08:57:50;2.80;99.90
23717;DHT22;22094;52.130;5.598;2023-11-22T09:00:20;3.20;99.90
23717;DHT22;22094;52.130;5.598;2023-11-22T09:02:51;2.90;99.90
23717;DHT22;22094;52.130;5.598;2023-11-22T09:05:16;3.00;99.90
23717;DHT22;22094;52.130;5.598;2023-11-22T09:07:44;3.10;99.90
23717;DHT22;22094;52.130;5.598;2023-11-22T09:10:10;3.20;99.90
23717;DHT22;22094;52.130;5.598;2023-11-22T09:12:37;3.20;99.90
23717;DHT22;22094;52.130;5.598;2023-11-22T09:15:05;5.50;99.90
23717;DHT22;22094;52.130;5.598;2023-11-22T09:17:34;3.40;99.90
23717;DHT22;22094;52.130;5.598;2023-11-22T09:19:59;3.40;99.90
23717;DHT22;22094;52.130;5.598;2023-11-22T09:22:27;3.60;99.90
23717;DHT22;22094;52.130;5.598;2023-11-22T09:24:53;3.60;99.90
23717;DHT22;22094;52.130;5.598;2023-11-22T09:27:18;3.70;99.90
23717;DHT22;22094;52.130;5.598;2023-11-22T09:29:46;4.20;99.90
23717;DHT22;22094;52.130;5.598;2023-11-22T09:32:11;3.90;99.90
23717;DHT22;22094;52.130;5.598;2023-11-22T09:34:38;4.60;99.90
23717;DHT22;22094;52.130;5.598;2023-11-22T09:37:04;4.70;99.90
23717;DHT22;22094;52.130;5.598;2023-11-22T09:39:33;4.30;99.90
23717;DHT22;22094;52.130;5.598;2023-11-22T09:42:01;4.30;99.90
23717;DHT22;22094;52.130;5.598;2023-11-22T09:44:28;4.70;99.90
23717;DHT22;22094;52.130;5.598;2023-11-22T09:46:55;4.70;99.90
23717;DHT22;22094;52.130;5.598;2023-11-22T09:49:24;4.60;99.90
23717;DHT22;22094;52.130;5.598;2023-11-22T09:51:54;4.70;99.90
23717;DHT22;22094;52.130;5.598;2023-11-22T09:59:18;4.80;99.90
23717;DHT22;22094;52.130;5.598;2023-11-22T10:04:14;4.90;99.90
23717;DHT22;22094;52.130;5.598;2023-11-22T10:06:40;5.00;99.90
23717;DHT22;22094;52.130;5.598;2023-11-22T10:14:09;5.10;99.90
23717;DHT22;22094;52.130;5.598;2023-11-22T10:16:34;5.10;99.90
23717;DHT22;22094;52.130;5.598;2023-11-22T10:21:28;5.30;99.90
23717;DHT22;22094;52.130;5.598;2023-11-22T10:24:03;5.20;99.90
23717;DHT22;22094;52.130;5.598;2023-11-22T10:26:29;5.30;99.90
23717;DHT22;22094;52.130;5.598;2023-11-22T10:28:56;5.40;99.90
23717;DHT22;22094;52.130;5.598;2023-11-22T10:31:23;5.10;99.90
23717;DHT22;22094;52.130;5.598;2023-11-22T10:36:15;5.20;99.90
23717;DHT22;22094;52.130;5.598;2023-11-22T10:38:46;6.80;99.90
23717;DHT22;22094;52.130;5.598;2023-11-22T10:41:11;5.30;99.90
23717;DHT22;22094;52.130;5.598;2023-11-22T10:43:39;5.50;99.90
23717;DHT22;22094;52.130;5.598;2023-11-22T10:48:32;5.70;99.90
23717;DHT22;22094;52.130;5.598;2023-11-22T10:51:02;5.60;99.90
23717;DHT22;22094;52.130;5.598;2023-11-22T10:53:38;5.70;56.40
23717;DHT22;22094;52.130;5.598;2023-11-22T10:56:18;5.70;57.00
23717;DHT22;22094;52.130;5.598;2023-11-22T11:03:40;5.60;1.00
23717;DHT22;22094;52.130;5.598;2023-11-22T11:06:09;6.20;1.00
23717;DHT22;22094;52.130;5.598;2023-11-22T11:08:37;5.40;1.00
23717;DHT22;22094;52.130;5.598;2023-11-22T11:11:04;5.80;99.90
23717;DHT22;22094;52.130;5.598;2023-11-22T11:25:15;6.30;1.00
23717;DHT22;22094;52.130;5.598;2023-11-22T11:27:41;9.50;82.20
23717;DHT22;22094;52.130;5.598;2023-11-22T11:30:43;6.30;1.00
23717;DHT22;22094;52.130;5.598;2023-11-22T11:33:13;6.30;1.00
23717;DHT22;22094;52.130;5.598;2023-11-22T11:35:43;6.40;1.00
23717;DHT22;22094;52.130;5.598;2023-11-22T11:38:13;6.40;1.00
23717;DHT22;22094;52.130;5.598;2023-11-22T11:40:41;7.90;99.90
23717;DHT22;22094;52.130;5.598;2023-11-22T11:43:07;6.20;99.90
23717;DHT22;22094;52.130;5.598;2023-11-22T11:45:38;3.50;1.00
23717;DHT22;22094;52.130;5.598;2023-11-22T11:48:05;7.50;1.00
23717;DHT22;22094;52.130;5.598;2023-11-22T11:50:31;7.40;99.90
23717;DHT22;22094;52.130;5.598;2023-11-22T11:57:53;8.30;1.00
23717;DHT22;22094;52.130;5.598;2023-11-22T12:00:19;6.10;1.00
23717;DHT22;22094;52.130;5.598;2023-11-22T12:05:11;6.60;1.00
23717;DHT22;22094;52.130;5.598;2023-11-22T12:07:38;6.00;99.90
23717;DHT22;22094;52.130;5.598;2023-11-22T12:10:05;9.10;1.00
23717;DHT22;22094;52.130;5.598;2023-11-22T12:12:34;8.20;1.00
23717;DHT22;22094;52.130;5.598;2023-11-22T12:15:00;6.20;1.00
23717;DHT22;22094;52.130;5.598;2023-11-22T12:17:26;6.40;99.90
23717;DHT22;22094;52.130;5.598;2023-11-22T12:22:20;8.90;1.00
23717;DHT22;22094;52.130;5.598;2023-11-22T12:24:46;9.40;1.00
23717;DHT22;22094;52.130;5.598;2023-11-22T12:27:11;8.30;1.00
23717;DHT22;22094;52.130;5.598;2023-11-22T12:32:04;8.50;1.00
23717;DHT22;22094;52.130;5.598;2023-11-22T12:36:56;9.30;1.00
23717;DHT22;22094;52.130;5.598;2023-11-22T12:39:22;6.80;1.00
23717;DHT22;22094;52.130;5.598;2023-11-22T12:41:52;7.30;99.90
23717;DHT22;22094;52.130;5.598;2023-11-22T12:44:18;7.20;99.90
23717;DHT22;22094;52.130;5.598;2023-11-22T12:46:52;8.60;1.00
23717;DHT22;22094;52.130;5.598;2023-11-22T12:49:25;7.30;1.00
23717;DHT22;22094;52.130;5.598;2023-11-22T12:51:56;7.30;1.00
23717;DHT22;22094;52.130;5.598;2023-11-22T12:56:52;6.90;1.00
23717;DHT22;22094;52.130;5.598;2023-11-22T12:59:24;6.80;1.00
23717;DHT22;22094;52.130;5.598;2023-11-22T13:01:50;7.10;1.00
23717;DHT22;22094;52.130;5.598;2023-11-22T13:06:44;5.80;1.00
23717;DHT22;22094;52.130;5.598;2023-11-22T13:11:41;7.00;1.00
23717;DHT22;22094;52.130;5.598;2023-11-22T13:14:07;6.80;1.00
23717;DHT22;22094;52.130;5.598;2023-11-22T13:16:33;6.70;76.80
23717;DHT22;22094;52.130;5.598;2023-11-22T13:19:00;6.90;1.00
23717;DHT22;22094;52.130;5.598;2023-11-22T13:28:44;6.70;99.90
23717;DHT22;22094;52.130;5.598;2023-11-22T13:31:10;6.30;1.00
23717;DHT22;22094;52.130;5.598;2023-11-22T13:33:37;6.60;99.90
23717;DHT22;22094;52.130;5.598;2023-11-22T13:36:04;6.50;99.90
23717;DHT22;22094;52.130;5.598;2023-11-22T13:38:30;6.50;1.00
23717;DHT22;22094;52.130;5.598;2023-11-22T13:45:48;6.40;99.90
23717;DHT22;22094;52.130;5.598;2023-11-22T13:48:15;6.30;99.90
23717;DHT22;22094;52.130;5.598;2023-11-22T13:50:42;6.60;99.90
23717;DHT22;22094;52.130;5.598;2023-11-22T13:53:08;6.40;92.40
23717;DHT22;22094;52.130;5.598;2023-11-22T13:55:36;6.40;1.00
23717;DHT22;22094;52.130;5.598;2023-11-22T13:58:02;6.20;1.00
23717;DHT22;22094;52.130;5.598;2023-11-22T14:00:30;6.20;1.00
23717;DHT22;22094;52.130;5.598;2023-11-22T14:03:00;6.10;99.90
23717;DHT22;22094;52.130;5.598;2023-11-22T14:05:31;7.10;99.90
23717;DHT22;22094;52.130;5.598;2023-11-22T14:07:57;6.60;1.00
23717;DHT22;22094;52.130;5.598;2023-11-22T14:10:24;9.10;16.80
23717;DHT22;22094;52.130;5.598;2023-11-22T14:12:52;6.10;1.00
23717;DHT22;22094;52.130;5.598;2023-11-22T14:15:18;6.30;1.00
23717;DHT22;22094;52.130;5.598;2023-11-22T14:17:50;6.30;99.90
23717;DHT22;22094;52.130;5.598;2023-11-22T14:20:17;5.90;1.00
23717;DHT22;22094;52.130;5.598;2023-11-22T14:22:43;6.30;1.00
23717;DHT22;22094;52.130;5.598;2023-11-22T14:25:09;6.00;1.00
23717;DHT22;22094;52.130;5.598;2023-11-22T14:30:06;6.10;26.10
23717;DHT22;22094;52.130;5.598;2023-11-22T14:32:34;6.00;99.90
23717;DHT22;22094;52.130;5.598;2023-11-22T14:35:09;6.00;1.00
23717;DHT22;22094;52.130;5.598;2023-11-22T14:37:36;5.70;56.50
23717;DHT22;22094;52.130;5.598;2023-11-22T14:40:05;6.30;1.00
23717;DHT22;22094;52.130;5.598;2023-11-22T14:42:38;5.90;1.00
23717;DHT22;22094;52.130;5.598;2023-11-22T14:45:05;5.90;99.90
23717;DHT22;22094;52.130;5.598;2023-11-22T14:47:31;6.00;1.00
23717;DHT22;22094;52.130;5.598;2023-11-22T14:50:02;6.40;1.00
23717;DHT22;22094;52.130;5.598;2023-11-22T14:52:30;5.90;99.90
23717;DHT22;22094;52.130;5.598;2023-11-22T14:54:55;6.10;99.90
23717;DHT22;22094;52.130;5.598;2023-11-22T14:57:27;7.00;99.90
23717;DHT22;22094;52.130;5.598;2023-11-22T14:59:52;5.80;1.00
23717;DHT22;22094;52.130;5.598;2023-11-22T15:02:18;5.80;1.00
23717;DHT22;22094;52.130;5.598;2023-11-22T15:04:44;5.70;1.00
23717;DHT22;22094;52.130;5.598;2023-11-22T15:07:11;5.60;1.00
23717;DHT22;22094;52.130;5.598;2023-11-22T15:09:37;5.80;1.00
23717;DHT22;22094;52.130;5.598;2023-11-22T15:12:03;5.70;1.00
23717;DHT22;22094;52.130;5.598;2023-11-22T15:14:33;5.70;1.00
23717;DHT22;22094;52.130;5.598;2023-11-22T15:17:02;5.60;1.00
23717;DHT22;22094;52.130;5.598;2023-11-22T15:19:31;5.60;99.90
23717;DHT22;22094;52.130;5.598;2023-11-22T15:21:57;5.60;99.90
23717;DHT22;22094;52.130;5.598;2023-11-22T15:24:23;6.70;99.90
23717;DHT22;22094;52.130;5.598;2023-11-22T15:26:48;5.60;1.00
23717;DHT22;22094;52.130;5.598;2023-11-22T15:29:14;5.30;1.00
23717;DHT22;22094;52.130;5.598;2023-11-22T15:31:42;6.30;1.00
23717;DHT22;22094;52.130;5.598;2023-11-22T15:34:08;5.40;1.00
23717;DHT22;22094;52.130;5.598;2023-11-22T15:36:34;5.80;1.00
23717;DHT22;22094;52.130;5.598;2023-11-22T15:39:00;5.40;23.10
23717;DHT22;22094;52.130;5.598;2023-11-22T15:41:26;6.20;99.90
23717;DHT22;22094;52.130;5.598;2023-11-22T15:43:52;5.30;99.90
23717;DHT22;22094;52.130;5.598;2023-11-22T15:46:18;5.30;1.00
23717;DHT22;22094;52.130;5.598;2023-11-22T15:48:44;5.00;1.00
23717;DHT22;22094;52.130;5.598;2023-11-22T15:51:11;5.30;1.00
23717;DHT22;22094;52.130;5.598;2023-11-22T15:53:44;5.60;1.00
23717;DHT22;22094;52.130;5.598;2023-11-22T15:56:11;5.60;1.00
23717;DHT22;22094;52.130;5.598;2023-11-22T15:58:43;6.40;99.90
23717;DHT22;22094;52.130;5.598;2023-11-22T16:01:09;5.30;99.90
23717;DHT22;22094;52.130;5.598;2023-11-22T16:03:35;5.30;99.90
23717;DHT22;22094;52.130;5.598;2023-11-22T16:06:04;5.30;99.90
23717;DHT22;22094;52.130;5.598;2023-11-22T16:08:30;5.10;99.90
23717;DHT22;22094;52.130;5.598;2023-11-22T16:10:56;5.70;99.90
23717;DHT22;22094;52.130;5.598;2023-11-22T16:13:22;5.70;99.90
23717;DHT22;22094;52.130;5.598;2023-11-22T16:15:47;5.50;1.00
23717;DHT22;22094;52.130;5.598;2023-11-22T16:18:14;5.20;1.00
23717;DHT22;22094;52.130;5.598;2023-11-22T16:20:43;5.30;1.00
23717;DHT22;22094;52.130;5.598;2023-11-22T16:23:09;5.50;1.00
23717;DHT22;22094;52.130;5.598;2023-11-22T16:25:34;5.30;1.00
23717;DHT22;22094;52.130;5.598;2023-11-22T16:28:00;5.30;1.00
23717;DHT22;22094;52.130;5.598;2023-11-22T16:30:26;5.30;99.90
23717;DHT22;22094;52.130;5.598;2023-11-22T16:32:52;5.30;99.90
23717;DHT22;22094;52.130;5.598;2023-11-22T16:35:17;5.80;99.90
23717;DHT22;22094;52.130;5.598;2023-11-22T16:37:43;5.60;99.90
23717;DHT22;22094;52.130;5.598;2023-11-22T16:40:09;5.70;99.90
23717;DHT22;22094;52.130;5.598;2023-11-22T16:42:35;5.20;99.90
23717;DHT22;22094;52.130;5.598;2023-11-22T16:45:01;5.20;99.90
23717;DHT22;22094;52.130;5.598;2023-11-22T16:47:28;5.20;99.90
23717;DHT22;22094;52.130;5.598;2023-11-22T16:49:54;5.60;99.90
23717;DHT22;22094;52.130;5.598;2023-11-22T16:52:21;5.20;99.90
23717;DHT22;22094;52.130;5.598;2023-11-22T16:54:51;5.20;99.90
23717;DHT22;22094;52.130;5.598;2023-11-22T16:57:17;5.20;99.90
23717;DHT22;22094;52.130;5.598;2023-11-22T16:59:43;5.60;99.90
23717;DHT22;22094;52.130;5.598;2023-11-22T17:02:10;6.00;86.30
23717;DHT22;22094;52.130;5.598;2023-11-22T17:04:38;5.80;1.00
23717;DHT22;22094;52.130;5.598;2023-11-22T17:07:05;5.20;1.00
23717;DHT22;22094;52.130;5.598;2023-11-22T17:09:31;5.30;1.00
23717;DHT22;22094;52.130;5.598;2023-11-22T17:11:56;5.30;1.00
23717;DHT22;22094;52.130;5.598;2023-11-22T17:14:22;5.30;1.00